Terminal Aerodrome Forecast
Issued by NWS Sterling, VA

Current Version | Previous Version | Graphics & Text | Print | Product List | Glossary On
Versions: 1 2 3 4 5 6 7 8 9 10 11 12 13 14 15 16 17 18 19 20 21 22 23 24 25 26 27 28 29 30 31
848
FTUS41 KLWX 280837 AAA
TAFIAD
TAF AMD
KIAD 280837Z 2809/2912 00000KT P6SM VCTS FEW050CB BKN100 BKN200
     FM281300 20005KT P6SM -SHRA OVC035
     FM282300 28004KT P6SM -SHRA BKN040
     FM290000 32005KT P6SM BKN040
     FM290600 34006KT P6SM BKN010
     FM290900 34009KT P6SM SCT025
     FM291100 34007KT P6SM SCT025=

USA.gov is the U.S. government's official web portal to all federal, state and local government web resources and services.